Welcome to
Al Navidi's
Personal Site

Al Navidi
Al and Emily
Al and Nicky
Ironman
 
 

 

 

Al Navidi's Athletic Achievements in Triathlon

Below is a partial list of my achievements in the sports of triathlon:

Race Name Distance Overall Time Year Rank Out Of
Great Chesepeake Swim 4.4 Miles 1999 1 11
YMCA Rocky Gap Triathlon 0.25-10-2.8 miles 1:04:19 1994 67 135
YMCA Rocky Gap Triathlon 0.25-10-2.8 miles 1:05:47 1995 68 120
Jim McDonnell Swim 2 miles 1:15:20 2002 4 77
Jim McDonnell Swim 2 miles 1:23:07 2004 123 131
Middletown, DE Triathlon 0.25-16-3.1 miles 1:24:03 1994 96 200
Dewey Beach 0.5-16-3.5 miles 1:26:16 2003 112 759
Jim McDonnell Swim 2 miles 1:27:47 2005 204 209
Jim McDonnell Swim 2 miles 1:28:59 2006 176 177
Dewey Beach 0.5-16-3.5 miles 1:31:19 2004 63 680
Frederick Biathlon 3-20-3 miles 1:31:44 1992 40 51
Spud Triathlon 0.5-16-3.1 miles 1:34:08 2003 37 383
Riverwatch Triathlon 0.75-16-3 miles 1:34:59 2001 133 534
Dewey Beach 0.5-16-3.5 miles 1:35:44 2002 150 783
Riverwatch Triathlon 0.75-16-3 miles 1:35:51 1998 172 455
Riverwatch Triathlon 0.75-16-3 miles 1:36:00 1997 166 356
Riverwatch Duathlon 3-16-3 miles 1:36:21 2002 58 163
Kinetic Sprint 0.5-16-3.1 miles 1:36:30 2013 223 592
Potomac Triathlon 0.75-16-3 miles 1:36:58 2002 94 266
Riverwatch Duathlon 3-16-3 miles 1:37:08 2004 54 206
Lums Pond 2-19.5-3.1 miles 1:37:09 2005 64 150
Kinetic Sprint 0.5-18-3.1 miles 1:39:12 2010 150 575
Kinetic Sprint 0.5-16-3.1 miles 1:40:13 2014 287 586
Dewey Beach 0.5-16-3.5 miles 1:41:16 2005 188 667
Riverwatch Triathlon 0.75-16-3 miles 1:41:20 1996 202 364
Kinetic Sprint 0.75-18-3.1 miles 1:41:25 2011 234 547
Kinetic Sprint 0.5-16-3.1 miles 1:41:52 2012 213 506
Cougar Biathlon 3-15-3 mi 1:42:42 1992 137 209
Riverwatch Triathlon 0.75-16-3 miles 1:43:33 1994 156 271
Lums Pond 0.5-19.5-3.1 miles 1:43:38 2003 147 427
Frederick Biathlon 3-20-3 miles 1:45:13 1994 90 122
Cougar Biathlon 3-15-3 miles 1:46:44 1993 109 150
Riverwatch Triathlon 0.75-16-3 miles 1:47:30 1993 286 449
Riverwatch Triathlon 0.75-16-3 miles 1:47:45 1999 190 429
Riverwatch Triathlon 0.75-16-3 miles 1:48:16 2000 243 433

Interesting Sites

Ironman
Piranha Sports
Setup Events
Active.com
VMTS
PHM
MCRRC
Marine Corps Marathon
Rock and Roll Series
Style Switcher
Theme Colors
Theme Skins

Layout Styles

Theme Types and Versions